createdAt,value
2017-02-01T00:00:48.679Z,0
2017-02-01T00:01:48.700Z,0
2017-02-01T00:03:03.241Z,0
2017-02-01T00:03:48.732Z,0
2017-02-01T00:04:48.751Z,0
2017-02-01T00:06:03.286Z,0
2017-02-01T00:06:48.774Z,0
2017-02-01T00:08:48.799Z,0
2017-02-01T00:09:48.432Z,0
2017-02-01T00:11:03.410Z,0
2017-02-01T00:11:48.848Z,0
2017-02-01T00:12:48.859Z,0
2017-02-01T00:13:48.877Z,0
2017-02-01T00:14:48.884Z,0
2017-02-01T00:15:48.905Z,0
2017-02-01T00:16:48.916Z,0
2017-02-01T00:17:48.942Z,0
2017-02-01T00:19:03.480Z,0
2017-02-01T00:20:03.493Z,0
2017-02-01T00:21:48.995Z,0
2017-02-01T00:23:49.020Z,0
2017-02-01T00:25:49.051Z,0
2017-02-01T00:26:49.069Z,0
2017-02-01T00:28:03.609Z,0
2017-02-01T00:28:49.096Z,0
2017-02-01T00:29:49.149Z,0
2017-02-01T00:30:49.127Z,0
2017-02-01T00:31:49.138Z,0
2017-02-01T00:32:49.159Z,0
2017-02-01T00:34:03.765Z,0
2017-02-01T00:35:03.715Z,0
2017-02-01T00:35:49.198Z,0
2017-02-01T00:36:49.464Z,0
2017-02-01T00:37:49.228Z,0
2017-02-01T00:38:48.854Z,0
2017-02-01T00:39:48.874Z,0
2017-02-01T00:41:03.799Z,0
2017-02-01T00:41:48.940Z,0
2017-02-01T00:42:49.302Z,0
2017-02-01T00:43:49.315Z,0
2017-02-01T00:44:49.329Z,0
2017-02-01T00:46:03.881Z,0
2017-02-01T00:46:49.360Z,0
2017-02-01T00:47:48.993Z,0
2017-02-01T00:48:49.395Z,0
2017-02-01T00:49:49.434Z,0
2017-02-01T00:51:03.949Z,0
2017-02-01T00:51:49.435Z,0
2017-02-01T00:52:49.452Z,0
2017-02-01T00:54:49.515Z,0
2017-02-01T00:55:49.499Z,0
2017-02-01T00:56:49.514Z,0
2017-02-01T00:58:04.061Z,0
2017-02-01T00:58:49.541Z,0
2017-02-01T00:59:49.556Z,0
2017-02-01T01:00:49.567Z,0
2017-02-01T01:02:04.119Z,0
2017-02-01T01:02:49.596Z,0
2017-02-01T01:03:49.616Z,0
2017-02-01T01:04:49.695Z,0
2017-02-01T01:06:04.175Z,0
2017-02-01T01:06:49.665Z,0
2017-02-01T01:07:49.674Z,0
2017-02-01T01:10:04.233Z,0
2017-02-01T01:10:49.751Z,0
2017-02-01T01:12:49.750Z,0
2017-02-01T01:13:49.768Z,0
2017-02-01T01:14:49.779Z,0
2017-02-01T01:15:49.792Z,0
2017-02-01T01:17:04.341Z,0
2017-02-01T01:17:49.820Z,0
2017-02-01T01:18:49.835Z,0
2017-02-01T01:19:49.852Z,0
2017-02-01T01:21:04.398Z,0
2017-02-01T01:21:49.884Z,0
2017-02-01T01:22:49.893Z,0
2017-02-01T01:23:49.905Z,0
2017-02-01T01:24:49.924Z,0
2017-02-01T01:25:49.971Z,0
2017-02-01T01:26:49.954Z,0
2017-02-01T01:27:50.269Z,0
2017-02-01T01:28:49.980Z,0
2017-02-01T01:30:04.536Z,0
2017-02-01T01:30:50.013Z,0
2017-02-01T01:31:50.030Z,0
2017-02-01T01:33:50.057Z,0
2017-02-01T01:34:49.689Z,0
2017-02-01T01:35:50.118Z,0
2017-02-01T01:37:04.633Z,0
2017-02-01T01:38:19.225Z,0
2017-02-01T01:38:50.132Z,0
2017-02-01T01:39:50.143Z,0
2017-02-01T01:40:50.155Z,0
2017-02-01T01:41:50.176Z,0
2017-02-01T01:42:50.191Z,0
2017-02-01T01:44:04.738Z,0
2017-02-01T01:44:50.222Z,0
2017-02-01T01:45:49.852Z,0
2017-02-01T01:47:04.779Z,0
2017-02-01T01:47:50.279Z,0
2017-02-01T01:48:50.280Z,0
2017-02-01T01:49:50.296Z,0
2017-02-01T01:50:49.919Z,0
2017-02-01T01:51:50.321Z,0
2017-02-01T01:53:04.868Z,0
2017-02-01T01:54:04.882Z,0
2017-02-01T01:55:04.899Z,0
2017-02-01T01:56:50.398Z,0
2017-02-01T01:57:50.419Z,0
2017-02-01T01:59:50.439Z,0
2017-02-01T02:00:50.455Z,0
2017-02-01T02:01:50.472Z,0
2017-02-01T02:02:50.490Z,0
2017-02-01T02:03:50.502Z,0
2017-02-01T02:04:50.516Z,0
2017-02-01T02:05:50.531Z,0
2017-02-01T02:06:50.546Z,0
2017-02-01T02:08:05.092Z,0
2017-02-01T02:08:50.573Z,0
2017-02-01T02:10:04.735Z,0
2017-02-01T02:12:05.151Z,0
2017-02-01T02:12:50.632Z,0
2017-02-01T02:13:50.682Z,0
2017-02-01T02:14:50.275Z,0
2017-02-01T02:15:50.834Z,0
2017-02-01T02:16:50.696Z,0
2017-02-01T02:18:05.237Z,0
2017-02-01T02:18:50.722Z,0
2017-02-01T02:19:50.737Z,0
2017-02-01T02:20:50.754Z,0
2017-02-01T02:21:51.069Z,0
2017-02-01T02:22:50.790Z,0
2017-02-01T02:23:50.804Z,0
2017-02-01T02:24:50.809Z,0
2017-02-01T02:26:05.556Z,0
2017-02-01T02:26:50.840Z,0
2017-02-01T02:27:50.858Z,0
2017-02-01T02:29:05.410Z,0
2017-02-01T02:30:05.412Z,0
2017-02-01T02:30:50.901Z,0
2017-02-01T02:31:50.918Z,0
2017-02-01T02:32:50.965Z,0
2017-02-01T02:33:50.951Z,0
2017-02-01T02:34:50.962Z,0
2017-02-01T02:36:05.117Z,0
2017-02-01T02:36:50.987Z,0
2017-02-01T02:37:51.004Z,0
2017-02-01T02:38:51.020Z,0
2017-02-01T02:39:51.030Z,0
2017-02-01T02:41:05.579Z,0
2017-02-01T02:41:50.686Z,0
2017-02-01T02:42:51.078Z,0
2017-02-01T02:43:51.093Z,0
2017-02-01T02:45:51.154Z,0
2017-02-01T02:46:51.136Z,0
2017-02-01T02:47:51.151Z,0
2017-02-01T02:48:51.167Z,0
2017-02-01T02:50:05.715Z,0
2017-02-01T02:51:05.725Z,0
2017-02-01T02:51:51.220Z,0
2017-02-01T02:52:51.227Z,0
2017-02-01T02:53:51.275Z,0
2017-02-01T02:55:05.822Z,0
2017-02-01T02:55:51.270Z,0
2017-02-01T02:56:51.311Z,0
2017-02-01T02:58:05.832Z,0
2017-02-01T02:59:05.849Z,0
2017-02-01T03:00:05.862Z,0
2017-02-01T03:00:51.347Z,0
2017-02-01T03:02:05.889Z,0
2017-02-01T03:02:51.380Z,0
2017-02-01T03:03:51.392Z,0
2017-02-01T03:04:51.437Z,0
2017-02-01T03:05:51.469Z,0
2017-02-01T03:06:51.436Z,0
2017-02-01T03:07:51.461Z,0
2017-02-01T03:08:51.465Z,0
2017-02-01T03:09:51.485Z,0
2017-02-01T03:10:51.495Z,0
2017-02-01T03:11:51.540Z,0
2017-02-01T03:13:06.061Z,0
2017-02-01T03:14:06.069Z,0
2017-02-01T03:14:51.175Z,0
2017-02-01T03:15:51.576Z,0
2017-02-01T03:16:51.584Z,0
2017-02-01T03:17:51.597Z,0
2017-02-01T03:19:06.141Z,0
2017-02-01T03:20:06.195Z,0
2017-02-01T03:20:51.642Z,0
2017-02-01T03:22:06.190Z,0
2017-02-01T03:22:51.696Z,0
2017-02-01T03:23:51.332Z,0
2017-02-01T03:24:51.704Z,0
2017-02-01T03:25:51.333Z,0
2017-02-01T03:26:51.733Z,0
2017-02-01T03:27:51.745Z,0
2017-02-01T03:29:06.293Z,0
2017-02-01T03:29:51.780Z,0
2017-02-01T03:30:51.790Z,0
2017-02-01T03:31:51.861Z,0
2017-02-01T03:33:06.350Z,0
2017-02-01T03:34:06.364Z,0
2017-02-01T03:34:51.850Z,0
2017-02-01T03:36:06.398Z,0
2017-02-01T03:36:51.879Z,0
2017-02-01T03:38:06.425Z,0
2017-02-01T03:38:51.909Z,0
2017-02-01T03:39:51.924Z,0
2017-02-01T03:40:51.948Z,0
2017-02-01T03:41:51.952Z,0
2017-02-01T03:42:51.968Z,0
2017-02-01T03:43:52.280Z,0
2017-02-01T03:45:06.533Z,0
2017-02-01T03:45:52.012Z,0
2017-02-01T03:46:52.031Z,0
2017-02-01T03:48:06.573Z,0
2017-02-01T03:48:52.060Z,0
2017-02-01T03:49:52.071Z,0
2017-02-01T03:50:52.086Z,0
2017-02-01T03:53:06.267Z,0
2017-02-01T03:53:52.134Z,0
2017-02-01T03:54:52.148Z,0
2017-02-01T03:55:52.159Z,0
2017-02-01T03:56:52.173Z,0
2017-02-01T03:57:52.187Z,0
2017-02-01T03:58:52.207Z,0
2017-02-01T03:59:52.217Z,0
2017-02-01T04:01:06.765Z,0
2017-02-01T04:03:06.793Z,0
2017-02-01T04:03:52.277Z,0
2017-02-01T04:05:06.820Z,0
2017-02-01T04:06:06.837Z,0
2017-02-01T04:06:52.326Z,0
2017-02-01T04:07:52.338Z,0
2017-02-01T04:08:52.353Z,0
2017-02-01T04:09:52.372Z,0
2017-02-01T04:10:52.379Z,0
2017-02-01T04:11:52.396Z,0
2017-02-01T04:12:52.414Z,0
2017-02-01T04:13:52.429Z,0
2017-02-01T04:14:52.738Z,0
2017-02-01T04:16:06.988Z,0
2017-02-01T04:16:52.505Z,0
2017-02-01T04:19:07.030Z,0
2017-02-01T04:19:52.513Z,0
2017-02-01T04:21:06.677Z,0
2017-02-01T04:22:07.072Z,0
2017-02-01T04:22:52.561Z,0
2017-02-01T04:24:07.105Z,0
2017-02-01T04:24:52.591Z,0
2017-02-01T04:25:52.219Z,0
2017-02-01T04:26:52.617Z,0
2017-02-01T04:27:52.635Z,0
2017-02-01T04:29:07.187Z,0
2017-02-01T04:29:52.660Z,0
2017-02-01T04:30:52.688Z,0
2017-02-01T04:32:52.704Z,0
2017-02-01T04:33:52.721Z,0
2017-02-01T04:34:53.463Z,0
2017-02-01T04:35:52.751Z,0
2017-02-01T04:36:52.774Z,0
2017-02-01T04:37:52.778Z,0
2017-02-01T04:38:52.794Z,0
2017-02-01T04:39:52.814Z,0
2017-02-01T04:41:06.969Z,0
2017-02-01T04:41:52.835Z,0
2017-02-01T04:42:52.854Z,0
2017-02-01T04:43:52.872Z,0
2017-02-01T04:44:52.981Z,0
2017-02-01T04:45:52.899Z,0
2017-02-01T04:46:52.911Z,0
2017-02-01T04:48:07.073Z,0
2017-02-01T04:48:52.942Z,0
2017-02-01T04:50:07.483Z,0
2017-02-01T04:50:52.968Z,0
2017-02-01T04:51:52.988Z,0
2017-02-01T04:52:53.003Z,0
2017-02-01T04:53:53.014Z,0
2017-02-01T04:54:53.029Z,0
2017-02-01T04:56:07.575Z,0
2017-02-01T04:56:53.090Z,0
2017-02-01T04:57:53.071Z,0
2017-02-01T04:58:53.094Z,0
2017-02-01T04:59:53.107Z,0
2017-02-01T05:01:07.649Z,0
2017-02-01T05:01:53.128Z,0
2017-02-01T05:02:53.148Z,0
2017-02-01T05:04:22.226Z,0
2017-02-01T05:05:07.710Z,0
2017-02-01T05:05:53.187Z,0
2017-02-01T05:07:07.735Z,0
2017-02-01T05:07:53.250Z,0
2017-02-01T05:08:53.534Z,0
2017-02-01T05:09:53.253Z,0
2017-02-01T05:10:53.263Z,0
2017-02-01T05:11:53.278Z,0
2017-02-01T05:12:53.293Z,0
2017-02-01T05:13:53.306Z,0
2017-02-01T05:14:53.320Z,0
2017-02-01T05:15:53.338Z,0
2017-02-01T05:16:53.352Z,0
2017-02-01T05:17:53.366Z,0
2017-02-01T05:18:53.683Z,0
2017-02-01T05:20:07.535Z,0
2017-02-01T05:20:53.409Z,0
2017-02-01T05:22:07.968Z,0
2017-02-01T05:23:53.458Z,0
2017-02-01T05:24:53.079Z,0
2017-02-01T05:25:53.481Z,0
2017-02-01T05:26:53.495Z,0
2017-02-01T05:28:07.655Z,0
2017-02-01T05:28:53.526Z,0
2017-02-01T05:29:53.572Z,0
2017-02-01T05:30:53.562Z,0
2017-02-01T05:31:53.573Z,0
2017-02-01T05:33:08.119Z,0
2017-02-01T05:33:53.607Z,0
2017-02-01T05:34:53.618Z,0
2017-02-01T05:36:08.163Z,0
2017-02-01T05:37:08.174Z,0
2017-02-01T05:37:53.663Z,0
2017-02-01T05:38:53.669Z,0
2017-02-01T05:39:53.698Z,0
2017-02-01T05:40:53.739Z,0
2017-02-01T05:42:08.250Z,0
2017-02-01T05:42:53.734Z,0
2017-02-01T05:43:53.743Z,0
2017-02-01T05:44:53.791Z,0
2017-02-01T05:45:53.776Z,0
2017-02-01T05:46:53.794Z,0
2017-02-01T05:47:53.805Z,0
2017-02-01T05:48:53.844Z,0
2017-02-01T05:49:53.862Z,0
2017-02-01T05:51:22.908Z,0
2017-02-01T05:51:53.868Z,0
2017-02-01T05:53:08.405Z,0
2017-02-01T05:54:08.717Z,0
2017-02-01T05:54:53.908Z,0
2017-02-01T05:55:53.921Z,0
2017-02-01T05:57:53.951Z,0
2017-02-01T05:58:53.989Z,0
2017-02-01T06:00:08.540Z,0
2017-02-01T06:00:54.022Z,0
2017-02-01T06:01:54.007Z,0
2017-02-01T06:02:54.018Z,0
2017-02-01T06:03:54.042Z,0
2017-02-01T06:04:54.052Z,0
2017-02-01T06:05:54.067Z,0
2017-02-01T06:06:54.092Z,0
2017-02-01T06:07:54.098Z,0
2017-02-01T06:08:54.110Z,0
2017-02-01T06:09:54.122Z,0
2017-02-01T06:10:54.137Z,0
2017-02-01T06:11:54.155Z,0
2017-02-01T06:13:54.177Z,0
2017-02-01T06:15:08.725Z,0
2017-02-01T06:15:54.235Z,0
2017-02-01T06:16:54.223Z,0
2017-02-01T06:17:54.236Z,0
2017-02-01T06:18:54.251Z,0
2017-02-01T06:19:54.265Z,0
2017-02-01T06:20:54.283Z,0
2017-02-01T06:21:54.293Z,0
2017-02-01T06:23:23.371Z,0
2017-02-01T06:24:08.469Z,0
2017-02-01T06:24:54.339Z,0
2017-02-01T06:26:08.881Z,0
2017-02-01T06:27:08.897Z,0
2017-02-01T06:28:54.396Z,0
2017-02-01T06:30:08.941Z,0
2017-02-01T06:30:54.423Z,0
2017-02-01T06:31:54.056Z,0
2017-02-01T06:32:54.453Z,0
2017-02-01T06:33:54.470Z,0
2017-02-01T06:34:54.482Z,0
2017-02-01T06:35:54.497Z,0
2017-02-01T06:36:54.511Z,0
2017-02-01T06:37:54.528Z,0
2017-02-01T06:39:09.081Z,0
2017-02-01T06:40:54.569Z,0
2017-02-01T06:42:54.594Z,0
2017-02-01T06:43:54.609Z,0
2017-02-01T06:44:54.629Z,0
2017-02-01T06:46:54.659Z,0
2017-02-01T06:48:09.200Z,0
2017-02-01T06:48:54.688Z,0
2017-02-01T06:49:54.704Z,0
2017-02-01T06:50:54.715Z,0
2017-02-01T06:52:09.268Z,0
2017-02-01T06:52:54.742Z,0
2017-02-01T06:53:54.762Z,0
2017-02-01T06:55:08.915Z,0
2017-02-01T06:56:08.928Z,0
2017-02-01T06:56:54.822Z,5
2017-02-01T06:57:54.818Z,5
2017-02-01T06:58:54.829Z,5
2017-02-01T06:59:54.846Z,5
2017-02-01T07:00:54.869Z,5
2017-02-01T07:01:54.878Z,5
2017-02-01T07:02:54.884Z,5
2017-02-01T07:03:54.513Z,5
2017-02-01T07:04:54.918Z,5
2017-02-01T07:05:54.927Z,10
2017-02-01T07:06:54.942Z,10
2017-02-01T07:08:09.498Z,10
2017-02-01T07:08:54.974Z,10
2017-02-01T07:09:54.991Z,10
2017-02-01T07:11:09.534Z,10
2017-02-01T07:11:55.018Z,15
2017-02-01T07:12:55.033Z,15
2017-02-01T07:13:55.046Z,15
2017-02-01T07:15:55.076Z,20
2017-02-01T07:17:09.618Z,25
2017-02-01T07:17:55.108Z,25
2017-02-01T07:18:55.117Z,25
2017-02-01T07:19:54.753Z,25
2017-02-01T07:20:55.147Z,20
2017-02-01T07:21:54.778Z,20
2017-02-01T07:23:09.714Z,20
2017-02-01T07:23:55.190Z,25
2017-02-01T07:25:09.741Z,25
2017-02-01T07:26:09.759Z,25
2017-02-01T07:26:54.877Z,25
2017-02-01T07:27:55.256Z,25
2017-02-01T07:29:09.412Z,25
2017-02-01T07:29:54.893Z,25
2017-02-01T07:30:55.211Z,25
2017-02-01T07:31:55.310Z,25
2017-02-01T07:32:55.324Z,20
2017-02-01T07:33:55.340Z,20
2017-02-01T07:34:55.353Z,25
2017-02-01T07:35:55.373Z,25
2017-02-01T07:36:55.388Z,25
2017-02-01T07:37:55.401Z,25
2017-02-01T07:38:55.410Z,30
2017-02-01T07:39:55.479Z,30
2017-02-01T07:42:09.991Z,30
2017-02-01T07:42:55.475Z,30
2017-02-01T07:43:55.487Z,30
2017-02-01T07:44:55.504Z,35
2017-02-01T07:45:55.516Z,35
2017-02-01T07:46:55.532Z,40
2017-02-01T07:47:55.544Z,35
2017-02-01T07:48:55.565Z,35
2017-02-01T07:49:55.577Z,35
2017-02-01T07:51:10.129Z,35
2017-02-01T07:51:55.605Z,35
2017-02-01T07:52:55.620Z,40
2017-02-01T07:53:55.634Z,40
2017-02-01T07:54:55.652Z,35
2017-02-01T07:56:10.218Z,35
2017-02-01T07:56:55.681Z,35
2017-02-01T07:58:10.221Z,35
2017-02-01T07:58:55.709Z,35
2017-02-01T07:59:55.730Z,35
2017-02-01T08:01:10.269Z,35
2017-02-01T08:02:55.770Z,35
2017-02-01T08:03:55.784Z,40
2017-02-01T08:04:55.799Z,40
2017-02-01T08:05:55.818Z,40
2017-02-01T08:06:55.832Z,35
2017-02-01T08:07:55.841Z,35
2017-02-01T08:08:55.856Z,35
2017-02-01T08:09:55.871Z,35
2017-02-01T08:12:10.435Z,40
2017-02-01T08:12:55.916Z,40
2017-02-01T08:14:10.465Z,40
2017-02-01T08:14:55.952Z,40
2017-02-01T08:15:55.964Z,40
2017-02-01T08:17:10.507Z,40
2017-02-01T08:18:10.523Z,40
2017-02-01T08:18:56.017Z,40
2017-02-01T08:19:56.027Z,40
2017-02-01T08:20:56.043Z,40
2017-02-01T08:21:56.053Z,40
2017-02-01T08:22:56.068Z,45
2017-02-01T08:24:10.615Z,45
2017-02-01T08:24:56.094Z,45
2017-02-01T08:25:56.111Z,45
2017-02-01T08:26:56.132Z,50
2017-02-01T08:27:56.143Z,50
2017-02-01T08:28:56.157Z,50
2017-02-01T08:30:10.321Z,50
2017-02-01T08:31:10.721Z,55
2017-02-01T08:31:56.201Z,55
2017-02-01T08:32:55.834Z,55
2017-02-01T08:33:55.847Z,55
2017-02-01T08:34:56.246Z,60
2017-02-01T08:35:56.263Z,60
2017-02-01T08:37:10.811Z,65
2017-02-01T08:38:10.826Z,65
2017-02-01T08:38:55.922Z,65
2017-02-01T08:39:56.325Z,65
2017-02-01T08:41:10.877Z,65
2017-02-01T08:41:56.356Z,70
2017-02-01T08:42:56.370Z,70
2017-02-01T08:43:56.384Z,65
2017-02-01T08:44:56.014Z,65
2017-02-01T08:46:10.945Z,65
2017-02-01T08:46:56.047Z,65
2017-02-01T08:49:56.473Z,65
2017-02-01T08:51:11.021Z,65
2017-02-01T08:51:56.505Z,70
2017-02-01T08:52:56.524Z,70
2017-02-01T08:53:56.539Z,70
2017-02-01T08:55:11.083Z,70
2017-02-01T08:55:56.570Z,70
2017-02-01T08:56:56.582Z,70
2017-02-01T08:57:56.608Z,70
2017-02-01T08:58:56.228Z,70
2017-02-01T08:59:56.628Z,70
2017-02-01T09:01:11.201Z,75
2017-02-01T09:01:56.660Z,75
2017-02-01T09:02:56.291Z,75
2017-02-01T09:03:56.690Z,80
2017-02-01T09:04:56.709Z,80
2017-02-01T09:06:56.743Z,85
2017-02-01T09:07:56.368Z,85
2017-02-01T09:08:56.768Z,80
2017-02-01T09:09:56.786Z,80
2017-02-01T09:11:56.812Z,85
2017-02-01T09:13:11.371Z,90
2017-02-01T09:13:56.846Z,95
2017-02-01T09:14:56.866Z,100
2017-02-01T09:15:57.080Z,100
2017-02-01T09:16:56.896Z,100
2017-02-01T09:18:11.440Z,100
2017-02-01T09:18:56.927Z,100
2017-02-01T09:19:56.946Z,100
2017-02-01T09:20:56.961Z,100
2017-02-01T09:22:56.986Z,95
2017-02-01T09:23:57.004Z,95
2017-02-01T09:24:57.018Z,95
2017-02-01T09:25:57.037Z,95
2017-02-01T09:26:57.054Z,95
2017-02-01T09:27:56.681Z,90
2017-02-01T09:28:57.092Z,85
2017-02-01T09:29:57.098Z,80
2017-02-01T09:30:57.117Z,80
2017-02-01T09:31:57.131Z,80
2017-02-01T09:33:11.677Z,80
2017-02-01T09:33:56.775Z,80
2017-02-01T09:34:57.195Z,80
2017-02-01T09:35:57.221Z,80
2017-02-01T09:37:11.755Z,75
2017-02-01T09:38:57.248Z,75
2017-02-01T09:39:57.283Z,75
2017-02-01T09:41:11.804Z,75
2017-02-01T09:41:57.292Z,75
2017-02-01T09:42:56.916Z,75
2017-02-01T09:43:57.320Z,75
2017-02-01T09:44:57.336Z,80
2017-02-01T09:45:57.354Z,90
2017-02-01T09:46:57.367Z,90
2017-02-01T09:47:57.384Z,90
2017-02-01T09:49:26.465Z,90
2017-02-01T09:50:11.945Z,95
2017-02-01T09:50:57.680Z,95
2017-02-01T09:51:57.449Z,95
2017-02-01T09:53:11.992Z,95
2017-02-01T09:53:57.481Z,95
2017-02-01T09:54:57.495Z,95
2017-02-01T09:56:12.044Z,90
2017-02-01T09:56:57.534Z,95
2017-02-01T09:57:57.543Z,100
2017-02-01T09:58:57.559Z,105
2017-02-01T09:59:57.573Z,100
2017-02-01T10:00:57.587Z,100
2017-02-01T10:01:57.604Z,95
2017-02-01T10:02:57.627Z,90
2017-02-01T10:03:57.636Z,90
2017-02-01T10:05:12.182Z,90
2017-02-01T10:05:57.708Z,90
2017-02-01T10:06:57.691Z,90
2017-02-01T10:07:57.711Z,90
2017-02-01T10:08:57.722Z,90
2017-02-01T10:09:57.733Z,95
2017-02-01T10:10:57.751Z,100
2017-02-01T10:11:57.767Z,100
2017-02-01T10:12:57.781Z,105
2017-02-01T10:13:57.796Z,105
2017-02-01T10:14:57.834Z,105
2017-02-01T10:15:57.829Z,105
2017-02-01T10:16:57.844Z,110
2017-02-01T10:17:57.958Z,105
2017-02-01T10:19:57.503Z,100
2017-02-01T10:21:12.456Z,105
2017-02-01T10:22:12.453Z,105
2017-02-01T10:23:12.086Z,105
2017-02-01T10:23:57.962Z,105
2017-02-01T10:25:12.504Z,105
2017-02-01T10:25:57.989Z,105
2017-02-01T10:26:58.011Z,100
2017-02-01T10:27:58.026Z,100
2017-02-01T10:28:58.038Z,100
2017-02-01T10:29:58.057Z,100
2017-02-01T10:30:58.068Z,95
2017-02-01T10:31:58.088Z,95
2017-02-01T10:32:58.102Z,95
2017-02-01T10:33:58.122Z,90
2017-02-01T10:34:58.142Z,95
2017-02-01T10:36:12.300Z,105
2017-02-01T10:36:58.168Z,110
2017-02-01T10:38:58.199Z,105
2017-02-01T10:40:58.234Z,85
2017-02-01T10:41:58.249Z,80
2017-02-01T10:42:58.273Z,75
2017-02-01T10:43:58.286Z,70
2017-02-01T10:44:58.298Z,70
2017-02-01T10:45:58.320Z,70
2017-02-01T10:47:58.345Z,70
2017-02-01T10:48:57.588Z,65
2017-02-01T10:50:12.911Z,70
2017-02-01T10:50:58.008Z,70
2017-02-01T10:51:58.415Z,75
2017-02-01T10:53:12.959Z,75
2017-02-01T10:53:58.057Z,75
2017-02-01T10:54:58.462Z,75
2017-02-01T10:55:58.504Z,75
2017-02-01T10:56:58.497Z,75
2017-02-01T10:57:58.504Z,75
2017-02-01T10:58:58.521Z,75
2017-02-01T10:59:58.537Z,75
2017-02-01T11:00:58.558Z,75
2017-02-01T11:02:13.104Z,70
2017-02-01T11:02:58.591Z,70
2017-02-01T11:03:58.599Z,75
2017-02-01T11:04:58.617Z,75
2017-02-01T11:05:58.644Z,75
2017-02-01T11:06:58.647Z,75
2017-02-01T11:08:12.423Z,75
2017-02-01T11:08:58.690Z,75
2017-02-01T11:10:13.232Z,75
2017-02-01T11:11:58.725Z,75
2017-02-01T11:12:58.745Z,75
2017-02-01T11:14:58.783Z,70
2017-02-01T11:15:58.793Z,70
2017-02-01T11:17:58.826Z,65
2017-02-01T11:19:58.905Z,65
2017-02-01T11:20:58.870Z,65
2017-02-01T11:21:58.886Z,65
2017-02-01T11:23:13.434Z,70
2017-02-01T11:24:27.982Z,70
2017-02-01T11:24:58.935Z,70
2017-02-01T11:25:58.950Z,70
2017-02-01T11:26:58.965Z,70
2017-02-01T11:27:58.985Z,70
2017-02-01T11:28:59.004Z,70
2017-02-01T11:29:59.011Z,75
2017-02-01T11:30:59.030Z,75
2017-02-01T11:31:59.051Z,70
2017-02-01T11:33:13.593Z,75
2017-02-01T11:33:59.078Z,75
2017-02-01T11:34:59.092Z,75
2017-02-01T11:35:59.113Z,75
2017-02-01T11:36:59.127Z,75
2017-02-01T11:37:59.169Z,75
2017-02-01T11:38:59.158Z,80
2017-02-01T11:40:13.704Z,90
2017-02-01T11:40:59.185Z,90
2017-02-01T11:42:13.735Z,90
2017-02-01T11:42:59.223Z,90
2017-02-01T11:46:13.804Z,95
2017-02-01T11:46:59.287Z,95
2017-02-01T11:47:59.298Z,90
2017-02-01T11:48:59.318Z,90
2017-02-01T11:49:59.337Z,85
2017-02-01T11:50:59.344Z,85
2017-02-01T11:51:59.377Z,85
2017-02-01T11:52:58.998Z,85
2017-02-01T11:53:59.393Z,80
2017-02-01T11:54:59.416Z,80
2017-02-01T11:56:59.451Z,75
2017-02-01T11:57:59.485Z,75
2017-02-01T11:58:58.706Z,75
2017-02-01T12:00:14.021Z,75
2017-02-01T12:00:59.507Z,75
2017-02-01T12:01:59.523Z,75
2017-02-01T12:02:59.540Z,80
2017-02-01T12:03:59.171Z,75
2017-02-01T12:05:14.105Z,75
2017-02-01T12:05:59.200Z,75
2017-02-01T12:06:59.601Z,75
2017-02-01T12:07:59.232Z,75
2017-02-01T12:08:59.636Z,75
2017-02-01T12:09:59.275Z,75
2017-02-01T12:11:13.478Z,75
2017-02-01T12:12:14.213Z,75
2017-02-01T12:12:59.313Z,75
2017-02-01T12:14:13.894Z,70
2017-02-01T12:14:59.736Z,70
2017-02-01T12:15:59.359Z,70
2017-02-01T12:17:59.811Z,70
2017-02-01T12:18:59.032Z,70
2017-02-01T12:20:14.346Z,70
2017-02-01T12:20:59.450Z,65
2017-02-01T12:21:59.844Z,65
2017-02-01T12:22:59.881Z,60
2017-02-01T12:23:59.493Z,60
2017-02-01T12:24:59.897Z,60
2017-02-01T12:26:14.443Z,60
2017-02-01T12:27:14.461Z,65
2017-02-01T12:27:59.946Z,65
2017-02-01T12:28:59.956Z,60
2017-02-01T12:29:59.974Z,60
2017-02-01T12:31:14.519Z,55
2017-02-01T12:32:00.009Z,55
2017-02-01T12:33:00.024Z,50
2017-02-01T12:34:00.038Z,50
2017-02-01T12:35:00.052Z,50
2017-02-01T12:36:00.077Z,55
2017-02-01T12:36:59.704Z,55
2017-02-01T12:38:00.103Z,55
2017-02-01T12:38:59.728Z,55
2017-02-01T12:39:59.749Z,55
2017-02-01T12:41:00.146Z,55
2017-02-01T12:42:00.206Z,50
2017-02-01T12:43:14.712Z,55
2017-02-01T12:45:00.217Z,65
2017-02-01T12:46:14.376Z,60
2017-02-01T12:47:00.274Z,60
2017-02-01T12:48:14.893Z,55
2017-02-01T12:49:00.380Z,55
2017-02-01T12:50:14.829Z,55
2017-02-01T12:51:14.853Z,55
2017-02-01T12:51:59.939Z,55
2017-02-01T12:53:00.341Z,50
2017-02-01T12:54:00.362Z,50
2017-02-01T12:54:59.988Z,50
2017-02-01T12:56:00.391Z,50
2017-02-01T12:57:00.407Z,55
2017-02-01T12:58:14.963Z,55
2017-02-01T12:59:14.974Z,50
2017-02-01T13:00:00.534Z,50
2017-02-01T13:01:00.094Z,50
2017-02-01T13:02:00.486Z,50
2017-02-01T13:03:00.580Z,50
2017-02-01T13:04:00.549Z,50
2017-02-01T13:05:00.539Z,50
2017-02-01T13:06:15.080Z,55
2017-02-01T13:07:15.098Z,50
2017-02-01T13:08:00.194Z,50
2017-02-01T13:09:00.214Z,50
2017-02-01T13:10:14.759Z,45
2017-02-01T13:11:00.245Z,45
2017-02-01T13:11:59.872Z,45
2017-02-01T13:13:00.281Z,40
2017-02-01T13:14:00.679Z,40
2017-02-01T13:15:15.228Z,40
2017-02-01T13:16:00.713Z,40
2017-02-01T13:17:00.341Z,40
2017-02-01T13:19:00.758Z,35
2017-02-01T13:20:15.306Z,35
2017-02-01T13:21:00.789Z,40
2017-02-01T13:23:15.351Z,45
2017-02-01T13:24:00.449Z,45
2017-02-01T13:25:15.384Z,50
2017-02-01T13:26:00.868Z,50
2017-02-01T13:27:00.882Z,50
2017-02-01T13:28:00.902Z,50
2017-02-01T13:29:00.914Z,50
2017-02-01T13:30:00.558Z,50
2017-02-01T13:31:15.098Z,50
2017-02-01T13:32:15.111Z,50
2017-02-01T13:33:00.977Z,50
2017-02-01T13:34:00.995Z,50
2017-02-01T13:35:01.014Z,50
2017-02-01T13:36:01.029Z,55
2017-02-01T13:37:01.053Z,50
2017-02-01T13:38:00.677Z,50
2017-02-01T13:39:15.609Z,50
2017-02-01T13:40:15.626Z,45
2017-02-01T13:42:01.126Z,45
2017-02-01T13:43:01.137Z,40
2017-02-01T13:44:01.158Z,45
2017-02-01T13:45:01.239Z,45
2017-02-01T13:46:15.720Z,45
2017-02-01T13:47:15.741Z,50
2017-02-01T13:48:15.755Z,50
2017-02-01T13:49:15.767Z,55
2017-02-01T13:50:01.251Z,55
2017-02-01T13:51:15.801Z,55
2017-02-01T13:52:15.814Z,60
2017-02-01T13:53:01.308Z,60
2017-02-01T13:54:15.461Z,60
2017-02-01T13:55:15.865Z,60
2017-02-01T13:56:01.346Z,60
2017-02-01T13:57:01.364Z,60
2017-02-01T13:58:01.384Z,60
2017-02-01T14:00:01.413Z,55
2017-02-01T14:01:01.429Z,55
2017-02-01T14:02:01.445Z,60
2017-02-01T14:03:01.076Z,60
2017-02-01T14:04:01.473Z,60
2017-02-01T14:05:16.025Z,60
2017-02-01T14:06:01.507Z,60
2017-02-01T14:07:01.137Z,60
2017-02-01T14:09:01.560Z,60
2017-02-01T14:10:01.577Z,60
2017-02-01T14:11:16.121Z,60
2017-02-01T14:12:01.609Z,60
2017-02-01T14:13:00.860Z,60
2017-02-01T14:14:00.865Z,60
2017-02-01T14:15:01.653Z,60
2017-02-01T14:16:01.667Z,55
2017-02-01T14:17:01.682Z,55
2017-02-01T14:18:16.231Z,55
2017-02-01T14:19:01.715Z,55
2017-02-01T14:20:01.732Z,55
2017-02-01T14:21:01.754Z,55
2017-02-01T14:23:16.311Z,55
2017-02-01T14:24:01.797Z,55
2017-02-01T14:25:01.423Z,55
2017-02-01T14:27:15.987Z,50
2017-02-01T14:28:16.032Z,50
2017-02-01T14:29:01.098Z,50
2017-02-01T14:30:01.115Z,50
2017-02-01T14:31:01.524Z,50
2017-02-01T14:32:01.150Z,50
2017-02-01T14:33:01.943Z,50
2017-02-01T14:34:16.484Z,50
2017-02-01T14:35:01.584Z,50
2017-02-01T14:36:01.211Z,50
2017-02-01T14:37:01.231Z,45
2017-02-01T14:38:01.629Z,45
2017-02-01T14:39:16.178Z,45
2017-02-01T14:40:01.275Z,45
2017-02-01T14:41:16.209Z,45
2017-02-01T14:42:16.611Z,45
2017-02-01T14:44:01.723Z,45
2017-02-01T14:45:02.137Z,45
2017-02-01T14:46:02.143Z,45
2017-02-01T14:47:02.160Z,45
2017-02-01T14:48:02.173Z,45
2017-02-01T14:49:02.193Z,40
2017-02-01T14:50:16.738Z,40
2017-02-01T14:51:01.452Z,40
2017-02-01T14:52:01.862Z,40
2017-02-01T14:53:01.871Z,40
2017-02-01T14:54:01.884Z,40
2017-02-01T14:55:01.512Z,40
2017-02-01T14:56:02.553Z,40
2017-02-01T14:57:01.929Z,35
2017-02-01T14:58:01.564Z,35
2017-02-01T14:59:16.881Z,30
2017-02-01T15:01:02.388Z,30
2017-02-01T15:02:02.399Z,25
2017-02-01T15:03:02.412Z,25
2017-02-01T15:04:02.432Z,25
2017-02-01T15:05:02.443Z,25
2017-02-01T15:06:31.525Z,25
2017-02-01T15:07:02.475Z,25
2017-02-01T15:08:02.488Z,25
2017-02-01T15:09:17.039Z,25
2017-02-01T15:10:02.134Z,25
2017-02-01T15:11:16.299Z,20
2017-02-01T15:12:02.550Z,20
2017-02-01T15:13:02.181Z,20
2017-02-01T15:14:02.584Z,20
2017-02-01T15:15:17.134Z,20
2017-02-01T15:16:17.149Z,20
2017-02-01T15:17:02.631Z,20
2017-02-01T15:18:02.646Z,20
2017-02-01T15:19:02.275Z,20
2017-02-01T15:20:02.308Z,20
2017-02-01T15:21:17.226Z,20
2017-02-01T15:22:02.710Z,20
2017-02-01T15:23:02.771Z,15
2017-02-01T15:24:02.747Z,15